createdAt,value
2019-01-09T00:00:04.952Z,1.80
2019-01-09T00:01:04.842Z,1.80
2019-01-09T00:02:04.534Z,1.80
2019-01-09T00:03:04.767Z,1.80
2019-01-09T00:04:05.090Z,1.70
2019-01-09T00:05:05.275Z,1.70
2019-01-09T00:06:09.824Z,1.70
2019-01-09T00:07:04.175Z,1.70
2019-01-09T00:08:04.336Z,1.70
2019-01-09T00:09:04.877Z,1.70
2019-01-09T00:10:05.099Z,1.70
2019-01-09T00:11:04.412Z,1.70
2019-01-09T00:12:04.850Z,1.70
2019-01-09T00:13:04.628Z,1.70
2019-01-09T00:14:04.649Z,1.70
2019-01-09T00:15:05.225Z,1.70
2019-01-09T00:16:04.699Z,1.70
2019-01-09T00:17:05.343Z,1.70
2019-01-09T00:18:04.455Z,1.70
2019-01-09T00:19:05.028Z,1.70
2019-01-09T00:20:04.306Z,1.70
2019-01-09T00:21:04.363Z,1.70
2019-01-09T00:22:04.755Z,1.70
2019-01-09T00:23:04.793Z,1.70
2019-01-09T00:24:04.919Z,1.70
2019-01-09T00:25:04.929Z,1.70
2019-01-09T00:26:05.177Z,1.70
2019-01-09T00:27:04.165Z,1.70
2019-01-09T00:28:04.236Z,1.60
2019-01-09T00:29:10.131Z,1.60
2019-01-09T00:30:04.532Z,1.60
2019-01-09T00:31:05.184Z,1.60
2019-01-09T00:32:04.344Z,1.60
2019-01-09T00:33:04.278Z,1.60
2019-01-09T00:34:05.001Z,1.60
2019-01-09T00:35:04.184Z,1.60
2019-01-09T00:36:04.706Z,1.60
2019-01-09T00:37:05.150Z,1.60
2019-01-09T00:38:04.627Z,1.60
2019-01-09T00:39:04.569Z,1.50
2019-01-09T00:40:05.009Z,1.50
2019-01-09T00:41:05.197Z,1.50
2019-01-09T00:42:05.080Z,1.50
2019-01-09T00:43:04.504Z,1.50
2019-01-09T00:44:04.866Z,1.50
2019-01-09T00:45:05.171Z,1.50
2019-01-09T00:46:04.534Z,1.50
2019-01-09T00:47:05.021Z,1.50
2019-01-09T00:48:04.598Z,1.50
2019-01-09T00:49:04.718Z,1.50
2019-01-09T00:50:04.766Z,1.50
2019-01-09T00:51:04.945Z,1.50
2019-01-09T00:52:04.966Z,1.50
2019-01-09T00:53:08.013Z,1.40
2019-01-09T00:54:04.822Z,1.40
2019-01-09T00:55:05.208Z,1.40
2019-01-09T00:56:04.261Z,1.40
2019-01-09T00:57:04.765Z,1.40
2019-01-09T00:58:04.929Z,1.40
2019-01-09T00:59:04.900Z,1.40
2019-01-09T01:00:04.955Z,1.40
2019-01-09T01:01:04.282Z,1.40
2019-01-09T01:02:04.360Z,1.40
2019-01-09T01:03:04.818Z,1.40
2019-01-09T01:04:04.924Z,1.40
2019-01-09T01:05:05.073Z,1.40
2019-01-09T01:06:04.795Z,1.30
2019-01-09T01:07:04.888Z,1.30
2019-01-09T01:08:04.986Z,1.30
2019-01-09T01:09:04.569Z,1.30
2019-01-09T01:10:04.696Z,1.30
2019-01-09T01:11:05.217Z,1.30
2019-01-09T01:12:04.635Z,1.30
2019-01-09T01:13:04.851Z,1.30
2019-01-09T01:14:04.958Z,1.30
2019-01-09T01:15:04.466Z,1.30
2019-01-09T01:16:04.985Z,1.30
2019-01-09T01:17:04.530Z,1.30
2019-01-09T01:18:05.049Z,1.30
2019-01-09T01:19:04.204Z,1.30
2019-01-09T01:20:04.805Z,1.40
2019-01-09T01:21:05.079Z,1.30
2019-01-09T01:22:04.425Z,1.30
2019-01-09T01:23:04.995Z,1.30
2019-01-09T01:24:05.166Z,1.30
2019-01-09T01:25:04.358Z,1.30
2019-01-09T01:26:04.400Z,1.30
2019-01-09T01:27:04.595Z,1.30
2019-01-09T01:28:04.835Z,1.30
2019-01-09T01:29:04.915Z,1.30
2019-01-09T01:30:04.709Z,1.30
2019-01-09T01:31:04.727Z,1.30
2019-01-09T01:32:05.082Z,1.30
2019-01-09T01:33:04.549Z,1.30
2019-01-09T01:34:04.222Z,1.30
2019-01-09T01:35:04.448Z,1.30
2019-01-09T01:36:04.903Z,1.30
2019-01-09T01:37:04.632Z,1.30
2019-01-09T01:38:04.875Z,1.30
2019-01-09T01:39:04.197Z,1.30
2019-01-09T01:40:04.330Z,1.30
2019-01-09T01:41:04.349Z,1.30
2019-01-09T01:42:04.509Z,1.30
2019-01-09T01:43:04.790Z,1.30
2019-01-09T01:44:04.971Z,1.30
2019-01-09T01:45:05.162Z,1.30
2019-01-09T01:46:04.277Z,1.30
2019-01-09T01:47:04.378Z,1.30
2019-01-09T01:48:09.639Z,1.30
2019-01-09T01:49:05.052Z,1.20
2019-01-09T01:50:04.238Z,1.20
2019-01-09T01:51:04.441Z,1.20
2019-01-09T01:52:04.464Z,1.20
2019-01-09T01:53:04.662Z,1.20
2019-01-09T01:54:04.784Z,1.20
2019-01-09T01:55:05.064Z,1.20
2019-01-09T01:56:05.159Z,1.20
2019-01-09T01:57:04.295Z,1.20
2019-01-09T01:58:04.408Z,1.20
2019-01-09T01:59:04.478Z,1.20
2019-01-09T02:00:04.586Z,1.20
2019-01-09T02:01:04.697Z,1.20
2019-01-09T02:02:04.174Z,1.20
2019-01-09T02:03:04.338Z,1.20
2019-01-09T02:04:04.390Z,1.20
2019-01-09T02:05:04.792Z,1.20
2019-01-09T02:06:04.729Z,1.20
2019-01-09T02:07:05.044Z,1.20
2019-01-09T02:08:04.490Z,1.20
2019-01-09T02:09:04.360Z,1.20
2019-01-09T02:10:04.527Z,1.20
2019-01-09T02:11:05.077Z,1.20
2019-01-09T02:12:04.671Z,1.20
2019-01-09T02:13:05.232Z,1.20
2019-01-09T02:14:04.197Z,1.20
2019-01-09T02:15:04.395Z,1.20
2019-01-09T02:16:05.031Z,1.20
2019-01-09T02:17:05.052Z,1.20
2019-01-09T02:18:04.613Z,1.20
2019-01-09T02:19:04.310Z,1.20
2019-01-09T02:20:05.145Z,1.20
2019-01-09T02:21:04.670Z,1.20
2019-01-09T02:22:04.636Z,1.20
2019-01-09T02:23:04.983Z,1.20
2019-01-09T02:24:05.020Z,1.10
2019-01-09T02:25:04.332Z,1.10
2019-01-09T02:26:04.549Z,1.10
2019-01-09T02:27:04.867Z,1.10
2019-01-09T02:28:04.861Z,1.10
2019-01-09T02:29:09.979Z,1.10
2019-01-09T02:30:04.467Z,1.10
2019-01-09T02:31:04.495Z,1.10
2019-01-09T02:32:04.789Z,1.10
2019-01-09T02:33:04.899Z,1.10
2019-01-09T02:34:04.444Z,1.10
2019-01-09T02:35:04.795Z,1.10
2019-01-09T02:36:13.217Z,1.10
2019-01-09T02:37:04.369Z,1.10
2019-01-09T02:38:04.564Z,1.10
2019-01-09T02:39:04.545Z,1.10
2019-01-09T02:40:05.162Z,1.10
2019-01-09T02:41:04.630Z,1.10
2019-01-09T02:42:05.033Z,1.10
2019-01-09T02:43:04.183Z,1.10
2019-01-09T02:44:04.458Z,1.10
2019-01-09T02:45:04.853Z,1.10
2019-01-09T02:46:04.474Z,1.10
2019-01-09T02:47:04.727Z,1.10
2019-01-09T02:48:05.185Z,1.10
2019-01-09T02:49:04.802Z,1.10
2019-01-09T02:50:05.005Z,1.10
2019-01-09T02:51:04.900Z,1.10
2019-01-09T02:52:04.589Z,1.10
2019-01-09T02:53:04.634Z,1.10
2019-01-09T02:54:04.815Z,1.10
2019-01-09T02:55:04.369Z,1.10
2019-01-09T02:56:04.525Z,1.10
2019-01-09T02:57:05.201Z,1.10
2019-01-09T02:58:04.780Z,1.10
2019-01-09T02:59:04.975Z,1.10
2019-01-09T03:00:05.089Z,1.10
2019-01-09T03:01:05.233Z,1.00
2019-01-09T03:02:04.299Z,1.10
2019-01-09T03:03:04.772Z,1.10
2019-01-09T03:04:04.311Z,1.10
2019-01-09T03:05:04.823Z,1.00
2019-01-09T03:06:04.818Z,1.10
2019-01-09T03:07:05.055Z,1.10
2019-01-09T03:08:04.405Z,1.10
2019-01-09T03:09:04.429Z,1.10
2019-01-09T03:10:04.562Z,1.10
2019-01-09T03:11:04.665Z,1.10
2019-01-09T03:12:04.282Z,1.10
2019-01-09T03:13:04.431Z,1.10
2019-01-09T03:14:04.807Z,1.10
2019-01-09T03:15:05.115Z,1.10
2019-01-09T03:16:04.457Z,1.10
2019-01-09T03:17:04.935Z,1.10
2019-01-09T03:18:04.264Z,1.10
2019-01-09T03:19:04.741Z,1.10
2019-01-09T03:20:04.843Z,1.10
2019-01-09T03:21:04.893Z,1.10
2019-01-09T03:22:04.986Z,1.10
2019-01-09T03:23:04.446Z,1.10
2019-01-09T03:24:04.945Z,1.10
2019-01-09T03:25:04.556Z,1.10
2019-01-09T03:26:04.567Z,1.10
2019-01-09T03:27:04.933Z,1.10
2019-01-09T03:28:04.999Z,1.10
2019-01-09T03:29:14.445Z,1.10
2019-01-09T03:30:04.974Z,1.10
2019-01-09T03:31:04.983Z,1.00
2019-01-09T03:32:05.122Z,1.00
2019-01-09T03:33:04.923Z,1.00
2019-01-09T03:34:04.915Z,1.00
2019-01-09T03:35:05.047Z,1.00
2019-01-09T03:36:04.574Z,1.00
2019-01-09T03:37:04.574Z,1.00
2019-01-09T03:38:04.927Z,1.00
2019-01-09T03:39:04.881Z,1.00
2019-01-09T03:40:04.932Z,1.00
2019-01-09T03:41:04.972Z,1.00
2019-01-09T03:42:05.028Z,1.00
2019-01-09T03:43:04.260Z,1.00
2019-01-09T03:44:04.783Z,1.00
2019-01-09T03:45:05.114Z,1.00
2019-01-09T03:46:04.219Z,1.00
2019-01-09T03:47:04.498Z,1.00
2019-01-09T03:48:04.466Z,1.00
2019-01-09T03:49:04.602Z,1.00
2019-01-09T03:50:05.061Z,1.00
2019-01-09T03:51:05.144Z,1.00
2019-01-09T03:52:04.598Z,1.00
2019-01-09T03:53:05.174Z,1.00
2019-01-09T03:54:04.568Z,1.00
2019-01-09T03:55:04.902Z,1.00
2019-01-09T03:56:04.974Z,1.00
2019-01-09T03:57:05.072Z,1.00
2019-01-09T03:58:04.498Z,1.00
2019-01-09T03:59:04.592Z,1.00
2019-01-09T04:00:04.797Z,1.00
2019-01-09T04:01:04.849Z,1.00
2019-01-09T04:02:04.892Z,1.00
2019-01-09T04:03:04.428Z,1.00
2019-01-09T04:04:04.816Z,1.00
2019-01-09T04:05:10.154Z,1.00
2019-01-09T04:06:04.530Z,1.00
2019-01-09T04:07:05.148Z,1.00
2019-01-09T04:08:05.186Z,1.00
2019-01-09T04:09:04.340Z,1.00
2019-01-09T04:10:04.666Z,1.00
2019-01-09T04:11:04.773Z,1.00
2019-01-09T04:12:04.745Z,0.90
2019-01-09T04:13:04.301Z,1.00
2019-01-09T04:14:04.639Z,1.00
2019-01-09T04:15:04.862Z,1.00
2019-01-09T04:16:05.084Z,0.90
2019-01-09T04:17:05.118Z,1.00
2019-01-09T04:18:05.121Z,0.90
2019-01-09T04:19:05.194Z,0.90
2019-01-09T04:20:04.227Z,0.90
2019-01-09T04:21:04.339Z,1.00
2019-01-09T04:22:04.587Z,1.00
2019-01-09T04:23:04.550Z,1.00
2019-01-09T04:24:05.177Z,1.00
2019-01-09T04:25:04.827Z,0.90
2019-01-09T04:26:04.218Z,1.00
2019-01-09T04:27:04.476Z,0.90
2019-01-09T04:28:04.804Z,0.90
2019-01-09T04:29:10.040Z,0.90
2019-01-09T04:30:04.406Z,0.90
2019-01-09T04:31:04.435Z,0.90
2019-01-09T04:32:04.878Z,1.00
2019-01-09T04:33:04.980Z,0.90
2019-01-09T04:34:05.015Z,0.90
2019-01-09T04:35:04.552Z,0.90
2019-01-09T04:36:04.767Z,1.00
2019-01-09T04:37:04.319Z,0.90
2019-01-09T04:38:04.933Z,0.90
2019-01-09T04:39:05.128Z,0.90
2019-01-09T04:40:04.539Z,0.90
2019-01-09T04:41:04.960Z,0.90
2019-01-09T04:42:04.361Z,0.90
2019-01-09T04:43:04.504Z,0.90
2019-01-09T04:44:04.985Z,0.90
2019-01-09T04:45:04.306Z,0.90
2019-01-09T04:46:04.838Z,0.90
2019-01-09T04:47:04.498Z,0.90
2019-01-09T04:48:04.810Z,0.90
2019-01-09T04:49:10.171Z,0.90
2019-01-09T04:50:04.610Z,0.90
2019-01-09T04:51:04.688Z,0.90
2019-01-09T04:52:04.960Z,0.90
2019-01-09T04:53:05.015Z,0.90
2019-01-09T04:54:05.092Z,0.90
2019-01-09T04:55:05.151Z,0.90
2019-01-09T04:56:05.127Z,0.90
2019-01-09T04:57:04.334Z,0.90
2019-01-09T04:58:04.440Z,0.90
2019-01-09T04:59:04.672Z,0.90
2019-01-09T05:00:04.674Z,0.90
2019-01-09T05:01:04.315Z,0.90
2019-01-09T05:02:04.481Z,0.90
2019-01-09T05:03:04.484Z,0.90
2019-01-09T05:04:04.578Z,0.90
2019-01-09T05:05:04.566Z,0.90
2019-01-09T05:06:04.648Z,0.90
2019-01-09T05:07:04.688Z,0.80
2019-01-09T05:08:04.884Z,0.90
2019-01-09T05:09:04.264Z,0.80
2019-01-09T05:10:04.183Z,0.90
2019-01-09T05:11:04.568Z,0.80
2019-01-09T05:12:04.590Z,0.80
2019-01-09T05:13:04.641Z,0.90
2019-01-09T05:14:04.825Z,0.90
2019-01-09T05:15:04.374Z,0.90
2019-01-09T05:16:04.979Z,0.80
2019-01-09T05:17:04.855Z,0.80
2019-01-09T05:18:05.040Z,0.80
2019-01-09T05:19:05.179Z,0.80
2019-01-09T05:20:04.488Z,0.80
2019-01-09T05:21:04.396Z,0.80
2019-01-09T05:22:04.823Z,0.80
2019-01-09T05:23:04.998Z,0.80
2019-01-09T05:24:05.025Z,0.80
2019-01-09T05:25:05.000Z,0.80
2019-01-09T05:26:04.594Z,0.80
2019-01-09T05:27:04.724Z,0.80
2019-01-09T05:28:04.800Z,0.80
2019-01-09T05:29:04.875Z,0.80
2019-01-09T05:30:04.178Z,0.80
2019-01-09T05:31:07.550Z,0.80
2019-01-09T05:32:04.513Z,0.80
2019-01-09T05:33:04.321Z,0.80
2019-01-09T05:34:05.040Z,0.80
2019-01-09T05:35:04.974Z,0.80
2019-01-09T05:36:04.580Z,0.80
2019-01-09T05:37:09.307Z,0.80
2019-01-09T05:38:04.486Z,0.80
2019-01-09T05:39:05.021Z,0.80
2019-01-09T05:40:04.384Z,0.80
2019-01-09T05:41:04.451Z,0.80
2019-01-09T05:42:04.777Z,0.80
2019-01-09T05:43:05.171Z,0.80
2019-01-09T05:44:04.295Z,0.80
2019-01-09T05:45:04.542Z,0.80
2019-01-09T05:46:04.617Z,0.70
2019-01-09T05:47:04.213Z,0.80
2019-01-09T05:48:04.394Z,0.80
2019-01-09T05:49:04.200Z,0.70
2019-01-09T05:50:04.445Z,0.70
2019-01-09T05:51:04.799Z,0.70
2019-01-09T05:52:04.326Z,0.80
2019-01-09T05:53:04.319Z,0.80
2019-01-09T05:54:04.428Z,0.80
2019-01-09T05:55:04.552Z,0.80
2019-01-09T05:56:05.145Z,0.80
2019-01-09T05:57:05.086Z,0.70
2019-01-09T05:58:04.565Z,0.80
2019-01-09T05:59:04.478Z,0.80
2019-01-09T06:00:04.535Z,0.80
2019-01-09T06:01:04.635Z,0.80
2019-01-09T06:02:04.626Z,0.80
2019-01-09T06:03:04.632Z,0.80
2019-01-09T06:04:10.017Z,0.80
2019-01-09T06:05:04.590Z,0.70
2019-01-09T06:06:04.427Z,0.80
2019-01-09T06:07:04.538Z,0.80
2019-01-09T06:08:04.598Z,0.70
2019-01-09T06:09:05.149Z,0.70
2019-01-09T06:10:04.364Z,0.70
2019-01-09T06:11:04.994Z,0.70
2019-01-09T06:12:04.989Z,0.70
2019-01-09T06:13:04.971Z,0.70
2019-01-09T06:14:04.575Z,0.70
2019-01-09T06:15:04.589Z,0.80
2019-01-09T06:16:04.844Z,0.70
2019-01-09T06:17:05.018Z,0.70
2019-01-09T06:18:05.150Z,0.70
2019-01-09T06:19:04.452Z,0.70
2019-01-09T06:20:04.347Z,0.70
2019-01-09T06:21:04.823Z,0.70
2019-01-09T06:22:04.292Z,0.70
2019-01-09T06:23:04.795Z,0.70
2019-01-09T06:24:04.426Z,0.70
2019-01-09T06:25:04.340Z,0.70
2019-01-09T06:26:04.310Z,0.70
2019-01-09T06:27:04.565Z,0.70
2019-01-09T06:28:04.638Z,0.70
2019-01-09T06:29:10.051Z,0.70
2019-01-09T06:30:04.469Z,0.70
2019-01-09T06:31:05.169Z,0.70
2019-01-09T06:32:05.208Z,0.70
2019-01-09T06:33:04.865Z,0.70
2019-01-09T06:34:04.812Z,0.70
2019-01-09T06:35:05.126Z,0.70
2019-01-09T06:36:04.208Z,0.70
2019-01-09T06:37:04.769Z,0.70
2019-01-09T06:38:05.139Z,0.70
2019-01-09T06:39:05.401Z,0.70
2019-01-09T06:40:05.166Z,0.70
2019-01-09T06:41:04.137Z,0.70
2019-01-09T06:42:04.647Z,0.70
2019-01-09T06:43:04.852Z,0.70
2019-01-09T06:44:04.840Z,0.70
2019-01-09T06:45:04.468Z,0.70
2019-01-09T06:46:04.662Z,0.70
2019-01-09T06:47:04.922Z,0.70
2019-01-09T06:48:05.044Z,0.60
2019-01-09T06:49:04.969Z,0.60
2019-01-09T06:50:04.699Z,0.70
2019-01-09T06:51:04.846Z,0.60
2019-01-09T06:52:04.853Z,0.60
2019-01-09T06:53:04.972Z,0.60
2019-01-09T06:54:05.066Z,0.60
2019-01-09T06:55:05.250Z,0.70
2019-01-09T06:56:04.568Z,0.60
2019-01-09T06:57:04.638Z,0.60
2019-01-09T06:58:04.965Z,0.60
2019-01-09T06:59:05.035Z,0.60
2019-01-09T07:00:04.975Z,0.60
2019-01-09T07:01:04.209Z,0.60
2019-01-09T07:02:04.463Z,0.60
2019-01-09T07:03:04.513Z,0.60
2019-01-09T07:04:04.540Z,0.60
2019-01-09T07:05:04.592Z,0.60
2019-01-09T07:06:04.874Z,0.60
2019-01-09T07:07:04.972Z,0.60
2019-01-09T07:08:05.142Z,0.60
2019-01-09T07:09:04.404Z,0.60
2019-01-09T07:10:04.598Z,0.60
2019-01-09T07:11:04.594Z,0.60
2019-01-09T07:12:04.266Z,0.60
2019-01-09T07:13:04.649Z,0.60
2019-01-09T07:14:04.187Z,0.60
2019-01-09T07:15:11.236Z,0.60
2019-01-09T07:16:05.107Z,0.60
2019-01-09T07:17:05.239Z,0.60
2019-01-09T07:18:04.685Z,0.60
2019-01-09T07:19:05.027Z,0.60
2019-01-09T07:20:04.169Z,0.60
2019-01-09T07:21:04.539Z,0.60
2019-01-09T07:22:04.500Z,0.60
2019-01-09T07:23:04.513Z,0.50
2019-01-09T07:24:04.728Z,0.50
2019-01-09T07:25:05.119Z,0.60
2019-01-09T07:26:04.255Z,0.50
2019-01-09T07:27:04.375Z,0.50
2019-01-09T07:28:04.315Z,0.60
2019-01-09T07:29:09.591Z,0.50
2019-01-09T07:30:04.316Z,0.50
2019-01-09T07:31:04.443Z,0.50
2019-01-09T07:32:04.744Z,0.50
2019-01-09T07:33:04.810Z,0.50
2019-01-09T07:34:04.826Z,0.50
2019-01-09T07:35:04.377Z,0.50
2019-01-09T07:36:04.394Z,0.50
2019-01-09T07:37:04.952Z,0.50
2019-01-09T07:38:04.906Z,0.50
2019-01-09T07:39:05.101Z,0.50
2019-01-09T07:40:05.096Z,0.50
2019-01-09T07:41:04.675Z,0.50
2019-01-09T07:42:04.787Z,0.50
2019-01-09T07:43:04.237Z,0.50
2019-01-09T07:44:04.478Z,0.50
2019-01-09T07:45:04.537Z,0.50
2019-01-09T07:46:04.609Z,0.50
2019-01-09T07:47:04.839Z,0.50
2019-01-09T07:48:05.234Z,0.50
2019-01-09T07:49:04.485Z,0.50
2019-01-09T07:50:04.413Z,0.50
2019-01-09T07:51:04.439Z,0.50
2019-01-09T07:52:04.791Z,0.50
2019-01-09T07:53:04.470Z,0.50
2019-01-09T07:54:04.827Z,0.50
2019-01-09T07:55:04.876Z,0.50
2019-01-09T07:56:04.901Z,0.50
2019-01-09T07:57:04.996Z,0.50
2019-01-09T07:58:05.011Z,0.50
2019-01-09T07:59:04.461Z,0.50
2019-01-09T08:00:04.620Z,0.50
2019-01-09T08:01:04.929Z,0.50
2019-01-09T08:02:04.926Z,0.50
2019-01-09T08:03:05.101Z,0.50
2019-01-09T08:04:04.285Z,0.50
2019-01-09T08:05:04.390Z,0.50
2019-01-09T08:06:04.974Z,0.50
2019-01-09T08:07:04.932Z,0.50
2019-01-09T08:08:04.483Z,0.50
2019-01-09T08:09:04.637Z,0.50
2019-01-09T08:10:04.330Z,0.50
2019-01-09T08:11:04.616Z,0.50
2019-01-09T08:12:05.098Z,0.60
2019-01-09T08:13:04.725Z,0.50
2019-01-09T08:14:05.026Z,0.60
2019-01-09T08:15:04.507Z,0.50
2019-01-09T08:16:05.136Z,0.50
2019-01-09T08:17:04.916Z,0.60
2019-01-09T08:18:05.092Z,0.50
2019-01-09T08:19:04.227Z,0.50
2019-01-09T08:20:04.399Z,0.50
2019-01-09T08:21:05.359Z,0.50
2019-01-09T08:22:04.488Z,0.50
2019-01-09T08:23:05.104Z,0.50
2019-01-09T08:24:05.223Z,0.60
2019-01-09T08:25:04.265Z,0.50
2019-01-09T08:26:04.524Z,0.50
2019-01-09T08:27:05.121Z,0.50
2019-01-09T08:28:04.225Z,0.50
2019-01-09T08:29:10.145Z,0.50
2019-01-09T08:30:04.569Z,0.50
2019-01-09T08:31:04.591Z,0.50
2019-01-09T08:32:05.118Z,0.50
2019-01-09T08:33:04.345Z,0.50
2019-01-09T08:34:04.365Z,0.50
2019-01-09T08:35:04.507Z,0.50
2019-01-09T08:36:04.549Z,0.50
2019-01-09T08:37:04.539Z,0.50
2019-01-09T08:38:04.792Z,0.50
2019-01-09T08:39:04.450Z,0.50
2019-01-09T08:40:04.937Z,0.50
2019-01-09T08:41:05.042Z,0.50
2019-01-09T08:42:05.089Z,0.50
2019-01-09T08:43:04.215Z,0.50
2019-01-09T08:44:04.631Z,0.60
2019-01-09T08:45:04.283Z,0.60
2019-01-09T08:46:04.432Z,0.60
2019-01-09T08:47:04.649Z,0.60
2019-01-09T08:48:05.012Z,0.60
2019-01-09T08:49:04.946Z,0.60
2019-01-09T08:50:04.876Z,0.60
2019-01-09T08:51:04.922Z,0.60
2019-01-09T08:52:04.268Z,0.60
2019-01-09T08:53:04.542Z,0.60
2019-01-09T08:54:04.743Z,0.70
2019-01-09T08:55:10.234Z,0.70
2019-01-09T08:56:04.730Z,0.70
2019-01-09T08:57:04.730Z,0.70
2019-01-09T08:58:05.050Z,0.70
2019-01-09T08:59:04.437Z,0.70
2019-01-09T09:00:05.744Z,0.70
2019-01-09T09:01:04.393Z,0.70
2019-01-09T09:02:04.413Z,0.70
2019-01-09T09:03:04.909Z,0.70
2019-01-09T09:04:04.427Z,0.80
2019-01-09T09:05:05.053Z,0.70
2019-01-09T09:06:05.168Z,0.70
2019-01-09T09:07:05.279Z,0.70
2019-01-09T09:08:11.710Z,0.70
2019-01-09T09:09:04.995Z,0.70
2019-01-09T09:10:04.546Z,0.70
2019-01-09T09:11:04.629Z,0.70
2019-01-09T09:12:05.002Z,0.70
2019-01-09T09:13:05.265Z,0.70
2019-01-09T09:14:04.576Z,0.70
2019-01-09T09:15:04.803Z,0.70
2019-01-09T09:16:04.921Z,0.70
2019-01-09T09:17:04.945Z,0.80
2019-01-09T09:18:05.042Z,0.80
2019-01-09T09:19:04.465Z,0.80
2019-01-09T09:20:04.454Z,0.80
2019-01-09T09:21:04.627Z,0.80
2019-01-09T09:22:04.593Z,0.80
2019-01-09T09:23:04.671Z,0.80
2019-01-09T09:24:05.002Z,0.80
2019-01-09T09:25:05.000Z,0.80
2019-01-09T09:26:04.295Z,0.80
2019-01-09T09:27:04.449Z,0.80
2019-01-09T09:28:04.773Z,0.80
2019-01-09T09:29:09.898Z,0.80
2019-01-09T09:30:04.354Z,0.80
2019-01-09T09:31:04.496Z,0.90
2019-01-09T09:32:04.722Z,0.90
2019-01-09T09:33:04.686Z,0.90
2019-01-09T09:34:04.936Z,0.90
2019-01-09T09:35:05.055Z,0.90
2019-01-09T09:36:05.068Z,0.90
2019-01-09T09:37:04.685Z,0.90
2019-01-09T09:38:04.814Z,0.90
2019-01-09T09:39:04.953Z,0.90
2019-01-09T09:40:05.065Z,0.90
2019-01-09T09:41:04.389Z,1.00
2019-01-09T09:42:04.698Z,1.00
2019-01-09T09:43:04.880Z,1.00
2019-01-09T09:44:05.202Z,1.00
2019-01-09T09:45:04.565Z,1.00
2019-01-09T09:46:04.813Z,1.00
2019-01-09T09:47:04.463Z,1.00
2019-01-09T09:48:05.006Z,1.00
2019-01-09T09:49:04.991Z,1.00
2019-01-09T09:50:04.634Z,1.00
2019-01-09T09:51:04.665Z,1.00
2019-01-09T09:52:04.730Z,1.10
2019-01-09T09:53:05.044Z,1.10
2019-01-09T09:54:05.192Z,1.10
2019-01-09T09:55:12.604Z,1.10
2019-01-09T09:56:04.682Z,1.10
2019-01-09T09:57:04.782Z,1.10
2019-01-09T09:58:05.699Z,1.10
2019-01-09T09:59:04.678Z,1.10
2019-01-09T10:00:04.460Z,1.10
2019-01-09T10:01:04.454Z,1.10
2019-01-09T10:02:05.121Z,1.20
2019-01-09T10:03:10.286Z,1.10
2019-01-09T10:04:04.733Z,1.20
2019-01-09T10:05:04.799Z,1.20
2019-01-09T10:06:04.333Z,1.20
2019-01-09T10:07:04.815Z,1.20
2019-01-09T10:08:05.026Z,1.20
2019-01-09T10:09:04.991Z,1.20
2019-01-09T10:10:05.039Z,1.20
2019-01-09T10:11:04.627Z,1.10
2019-01-09T10:12:04.667Z,1.20
2019-01-09T10:13:04.739Z,1.20
2019-01-09T10:14:04.817Z,1.20
2019-01-09T10:15:04.265Z,1.20
2019-01-09T10:16:04.921Z,1.20
2019-01-09T10:17:04.999Z,1.20
2019-01-09T10:18:05.207Z,1.20
2019-01-09T10:19:04.284Z,1.20
2019-01-09T10:20:04.435Z,1.20
2019-01-09T10:21:04.425Z,1.20
2019-01-09T10:22:04.519Z,1.20
2019-01-09T10:23:04.635Z,1.20
2019-01-09T10:24:04.864Z,1.30
2019-01-09T10:25:04.873Z,1.30
2019-01-09T10:26:05.273Z,1.30
2019-01-09T10:27:05.023Z,1.30
2019-01-09T10:28:05.051Z,1.30
2019-01-09T10:29:10.034Z,1.30
2019-01-09T10:30:04.501Z,1.30
2019-01-09T10:31:05.123Z,1.30
2019-01-09T10:32:04.684Z,1.30
2019-01-09T10:33:05.309Z,1.30
2019-01-09T10:34:04.256Z,1.30
2019-01-09T10:35:04.969Z,1.30
2019-01-09T10:36:04.608Z,1.30
2019-01-09T10:37:04.746Z,1.30
2019-01-09T10:38:04.348Z,1.30
2019-01-09T10:39:04.428Z,1.30
2019-01-09T10:40:04.491Z,1.30
2019-01-09T10:41:04.695Z,1.30
2019-01-09T10:42:05.234Z,1.40
2019-01-09T10:43:04.212Z,1.30
2019-01-09T10:44:04.386Z,1.30
2019-01-09T10:45:04.423Z,1.40
2019-01-09T10:46:04.496Z,1.30
2019-01-09T10:47:04.561Z,1.30
2019-01-09T10:48:04.549Z,1.30
2019-01-09T10:49:05.051Z,1.30
2019-01-09T10:50:05.102Z,1.30
2019-01-09T10:51:04.313Z,1.40
2019-01-09T10:52:04.244Z,1.30
2019-01-09T10:53:04.483Z,1.40
2019-01-09T10:54:04.419Z,1.40
2019-01-09T10:55:04.986Z,1.40
2019-01-09T10:56:04.258Z,1.40
2019-01-09T10:57:04.301Z,1.40
2019-01-09T10:58:04.289Z,1.40
2019-01-09T10:59:04.373Z,1.40
2019-01-09T11:00:04.585Z,1.40
2019-01-09T11:01:04.706Z,1.40
2019-01-09T11:02:04.965Z,1.50
2019-01-09T11:03:04.176Z,1.50
2019-01-09T11:04:04.527Z,1.50
2019-01-09T11:05:04.583Z,1.50
2019-01-09T11:06:04.787Z,1.50
2019-01-09T11:07:04.831Z,1.50
2019-01-09T11:08:04.910Z,1.50
2019-01-09T11:09:05.138Z,1.50
2019-01-09T11:10:04.202Z,1.50
2019-01-09T11:11:04.436Z,1.50
2019-01-09T11:12:04.612Z,1.50
2019-01-09T11:13:04.794Z,1.50
2019-01-09T11:14:04.786Z,1.50
2019-01-09T11:15:04.971Z,1.60
2019-01-09T11:16:05.068Z,1.60
2019-01-09T11:17:05.208Z,1.60
2019-01-09T11:18:04.802Z,1.60
2019-01-09T11:19:04.315Z,1.60
2019-01-09T11:20:04.393Z,1.60
2019-01-09T11:21:04.996Z,1.60
2019-01-09T11:22:05.003Z,1.50
2019-01-09T11:23:05.185Z,1.60
2019-01-09T11:24:04.627Z,1.60
2019-01-09T11:25:04.833Z,1.60
2019-01-09T11:26:04.923Z,1.50
2019-01-09T11:27:04.961Z,1.60
2019-01-09T11:28:05.074Z,1.50
2019-01-09T11:29:10.122Z,1.50
2019-01-09T11:30:04.613Z,1.50
2019-01-09T11:31:04.299Z,1.50
2019-01-09T11:32:04.750Z,1.50
2019-01-09T11:33:05.276Z,1.50
2019-01-09T11:34:04.688Z,1.50
2019-01-09T11:35:05.113Z,1.50
2019-01-09T11:36:05.175Z,1.50
2019-01-09T11:37:05.126Z,1.50
2019-01-09T11:38:04.446Z,1.50
2019-01-09T11:39:04.928Z,1.50
2019-01-09T11:40:04.275Z,1.50
2019-01-09T11:41:04.344Z,1.50
2019-01-09T11:42:04.893Z,1.50
2019-01-09T11:43:05.206Z,1.50
2019-01-09T11:44:05.176Z,1.50
2019-01-09T11:45:04.252Z,1.50
2019-01-09T11:46:04.276Z,1.50
2019-01-09T11:47:04.724Z,1.50
2019-01-09T11:48:05.150Z,1.50
2019-01-09T11:49:04.901Z,1.50
2019-01-09T11:50:05.168Z,1.50
2019-01-09T11:51:04.709Z,1.50
2019-01-09T11:52:05.102Z,1.50
2019-01-09T11:53:05.112Z,1.50
2019-01-09T11:54:04.713Z,1.50
2019-01-09T11:55:04.774Z,1.50
2019-01-09T11:56:04.825Z,1.50
2019-01-09T11:57:05.036Z,1.40
2019-01-09T11:58:05.101Z,1.50
2019-01-09T11:59:05.265Z,1.50
2019-01-09T12:00:04.456Z,1.50
2019-01-09T12:01:04.861Z,1.50
2019-01-09T12:02:04.838Z,1.40
2019-01-09T12:03:04.985Z,1.40
2019-01-09T12:04:05.062Z,1.40
2019-01-09T12:05:05.125Z,1.40
2019-01-09T12:06:05.113Z,1.40
2019-01-09T12:07:05.142Z,1.40
2019-01-09T12:08:04.678Z,1.40
2019-01-09T12:09:04.886Z,1.40
2019-01-09T12:10:04.312Z,1.50
2019-01-09T12:11:04.437Z,1.50
2019-01-09T12:12:04.667Z,1.50
2019-01-09T12:13:04.745Z,1.50
2019-01-09T12:14:04.930Z,1.50
2019-01-09T12:15:05.091Z,1.50
2019-01-09T12:16:08.071Z,1.50
2019-01-09T12:17:04.922Z,1.50
2019-01-09T12:18:04.929Z,1.40
2019-01-09T12:19:04.331Z,1.40
2019-01-09T12:20:04.451Z,1.40
2019-01-09T12:21:04.381Z,1.40
2019-01-09T12:22:04.903Z,1.40
2019-01-09T12:23:05.212Z,1.50
2019-01-09T12:24:05.308Z,1.50
2019-01-09T12:25:04.730Z,1.50
2019-01-09T12:26:05.108Z,1.50
2019-01-09T12:27:04.352Z,1.50
2019-01-09T12:28:04.766Z,1.50
2019-01-09T12:29:10.100Z,1.50
2019-01-09T12:30:04.529Z,1.50
2019-01-09T12:31:04.893Z,1.50
2019-01-09T12:32:04.825Z,1.50
2019-01-09T12:33:04.971Z,1.50
2019-01-09T12:34:04.370Z,1.50
2019-01-09T12:35:04.936Z,1.40
2019-01-09T12:36:05.085Z,1.50
2019-01-09T12:37:05.166Z,1.40
2019-01-09T12:38:04.524Z,1.50
2019-01-09T12:39:12.987Z,1.40
2019-01-09T12:40:04.933Z,1.40
2019-01-09T12:41:04.411Z,1.30
2019-01-09T12:42:04.442Z,1.30
2019-01-09T12:43:04.444Z,1.40
2019-01-09T12:44:05.017Z,1.40
2019-01-09T12:45:04.405Z,1.30
2019-01-09T12:46:04.638Z,1.30
2019-01-09T12:47:04.629Z,1.30
2019-01-09T12:48:04.954Z,1.30
2019-01-09T12:49:05.062Z,1.30
2019-01-09T12:50:04.786Z,1.30
2019-01-09T12:51:05.177Z,1.40
2019-01-09T12:52:04.911Z,1.40
2019-01-09T12:53:04.196Z,1.40
2019-01-09T12:54:04.365Z,1.40
2019-01-09T12:55:04.783Z,1.40
2019-01-09T12:56:05.186Z,1.40
2019-01-09T12:57:04.428Z,1.40
2019-01-09T12:58:04.920Z,1.30
2019-01-09T12:59:04.249Z,1.30
2019-01-09T13:00:04.219Z,1.30
2019-01-09T13:01:04.769Z,1.30
2019-01-09T13:02:04.957Z,1.30
2019-01-09T13:03:04.953Z,1.30
2019-01-09T13:04:04.474Z,1.30
2019-01-09T13:05:04.799Z,1.30
2019-01-09T13:06:04.638Z,1.30
2019-01-09T13:07:04.628Z,1.20
2019-01-09T13:08:05.000Z,1.20
2019-01-09T13:09:04.919Z,1.20
2019-01-09T13:10:04.925Z,1.20
2019-01-09T13:11:05.105Z,1.20
2019-01-09T13:12:05.142Z,1.20
2019-01-09T13:13:05.166Z,1.20
2019-01-09T13:14:04.234Z,1.20
2019-01-09T13:15:04.685Z,1.20
2019-01-09T13:16:04.931Z,1.20
2019-01-09T13:17:11.762Z,1.20
2019-01-09T13:18:05.374Z,1.20